sensor_id;sensor_type;location;lat;lon;timestamp;pressure;altitude;pressure_sealevel;temperature;humidity
77979;BME280;67169;50.268;8.694;2023-05-10T00:01:05;98863.31;;;12.95;92.55
77979;BME280;67169;50.268;8.694;2023-05-10T00:03:32;98862.63;;;12.91;92.66
77979;BME280;67169;50.268;8.694;2023-05-10T00:05:59;98866.50;;;12.87;92.94
77979;BME280;67169;50.268;8.694;2023-05-10T00:08:25;98860.00;;;12.90;93.31
77979;BME280;67169;50.268;8.694;2023-05-10T00:10:52;98862.03;;;12.86;91.83
77979;BME280;67169;50.268;8.694;2023-05-10T00:13:20;98868.41;;;12.85;92.34
77979;BME280;67169;50.268;8.694;2023-05-10T00:15:47;98861.47;;;12.81;92.45
77979;BME280;67169;50.268;8.694;2023-05-10T00:18:13;98867.72;;;12.81;93.12
77979;BME280;67169;50.268;8.694;2023-05-10T00:20:40;98866.84;;;12.81;93.06
77979;BME280;67169;50.268;8.694;2023-05-10T00:23:06;98866.66;;;12.84;92.84
77979;BME280;67169;50.268;8.694;2023-05-10T00:25:33;98868.28;;;12.87;92.98
77979;BME280;67169;50.268;8.694;2023-05-10T00:27:59;98859.50;;;12.83;91.92
77979;BME280;67169;50.268;8.694;2023-05-10T00:30:28;98869.25;;;12.86;92.06
77979;BME280;67169;50.268;8.694;2023-05-10T00:32:54;98865.03;;;12.81;91.94
77979;BME280;67169;50.268;8.694;2023-05-10T00:35:21;98864.25;;;12.79;91.78
77979;BME280;67169;50.268;8.694;2023-05-10T00:37:48;98858.16;;;12.76;91.18
77979;BME280;67169;50.268;8.694;2023-05-10T00:40:15;98873.50;;;12.75;91.77
77979;BME280;67169;50.268;8.694;2023-05-10T00:42:41;98874.28;;;12.77;91.60
77979;BME280;67169;50.268;8.694;2023-05-10T00:45:08;98870.41;;;12.67;92.02
77979;BME280;67169;50.268;8.694;2023-05-10T00:47:36;98873.19;;;12.66;92.28
77979;BME280;67169;50.268;8.694;2023-05-10T00:50:04;98870.09;;;12.57;92.69
77979;BME280;67169;50.268;8.694;2023-05-10T00:52:31;98868.38;;;12.56;92.62
77979;BME280;67169;50.268;8.694;2023-05-10T00:54:58;98873.94;;;12.53;91.92
77979;BME280;67169;50.268;8.694;2023-05-10T00:57:25;98875.66;;;12.54;91.46
77979;BME280;67169;50.268;8.694;2023-05-10T00:59:51;98879.59;;;12.49;92.24
77979;BME280;67169;50.268;8.694;2023-05-10T01:02:18;98876.81;;;12.50;92.30
77979;BME280;67169;50.268;8.694;2023-05-10T01:04:46;98888.81;;;12.45;92.60
77979;BME280;67169;50.268;8.694;2023-05-10T01:07:12;98880.75;;;12.45;91.65
77979;BME280;67169;50.268;8.694;2023-05-10T01:09:39;98875.34;;;12.45;90.99
77979;BME280;67169;50.268;8.694;2023-05-10T01:12:06;98891.34;;;12.48;89.62
77979;BME280;67169;50.268;8.694;2023-05-10T01:14:33;98879.19;;;12.41;89.52
77979;BME280;67169;50.268;8.694;2023-05-10T01:17:01;98884.22;;;12.47;88.92
77979;BME280;67169;50.268;8.694;2023-05-10T01:19:29;98887.28;;;12.41;89.06
77979;BME280;67169;50.268;8.694;2023-05-10T01:22:11;98885.19;;;12.46;89.17
77979;BME280;67169;50.268;8.694;2023-05-10T01:25:06;98896.59;;;12.35;89.13
77979;BME280;67169;50.268;8.694;2023-05-10T01:28:11;98895.72;;;12.34;90.97
77979;BME280;67169;50.268;8.694;2023-05-10T01:31:03;98893.03;;;12.34;91.93
77979;BME280;67169;50.268;8.694;2023-05-10T01:33:35;98897.06;;;12.27;92.88
77979;BME280;67169;50.268;8.694;2023-05-10T01:36:10;98900.72;;;12.26;93.17
77979;BME280;67169;50.268;8.694;2023-05-10T01:38:43;98895.59;;;12.22;93.16
77979;BME280;67169;50.268;8.694;2023-05-10T01:41:18;98905.50;;;12.21;92.99
77979;BME280;67169;50.268;8.694;2023-05-10T01:43:53;98887.19;;;12.12;93.11
77979;BME280;67169;50.268;8.694;2023-05-10T01:46:27;98909.34;;;12.17;93.41
77979;BME280;67169;50.268;8.694;2023-05-10T01:48:58;98907.78;;;12.13;93.31
77979;BME280;67169;50.268;8.694;2023-05-10T01:51:30;98913.00;;;12.16;93.32
77979;BME280;67169;50.268;8.694;2023-05-10T01:54:00;98910.75;;;12.08;93.41
77979;BME280;67169;50.268;8.694;2023-05-10T01:56:30;98924.22;;;12.08;93.05
77979;BME280;67169;50.268;8.694;2023-05-10T01:58:57;98917.06;;;12.07;93.21
77979;BME280;67169;50.268;8.694;2023-05-10T02:01:26;98918.41;;;12.00;93.30
77979;BME280;67169;50.268;8.694;2023-05-10T02:03:54;98928.31;;;12.00;93.33
77979;BME280;67169;50.268;8.694;2023-05-10T02:06:22;98927.34;;;12.01;93.32
77979;BME280;67169;50.268;8.694;2023-05-10T02:08:52;98931.97;;;11.99;93.96
77979;BME280;67169;50.268;8.694;2023-05-10T02:11:19;98934.84;;;11.96;93.56
77979;BME280;67169;50.268;8.694;2023-05-10T02:13:49;98933.97;;;11.95;93.55
77979;BME280;67169;50.268;8.694;2023-05-10T02:16:16;98931.56;;;11.91;94.08
77979;BME280;67169;50.268;8.694;2023-05-10T02:18:44;98938.41;;;11.96;93.76
77979;BME280;67169;50.268;8.694;2023-05-10T02:21:13;98931.19;;;11.97;93.77
77979;BME280;67169;50.268;8.694;2023-05-10T02:23:42;98943.88;;;11.95;93.90
77979;BME280;67169;50.268;8.694;2023-05-10T02:26:10;98938.66;;;11.92;94.03
77979;BME280;67169;50.268;8.694;2023-05-10T02:28:40;98943.88;;;11.95;94.13
77979;BME280;67169;50.268;8.694;2023-05-10T02:31:07;98934.03;;;11.94;94.06
77979;BME280;67169;50.268;8.694;2023-05-10T02:33:37;98944.66;;;11.97;93.99
77979;BME280;67169;50.268;8.694;2023-05-10T02:36:07;98948.03;;;12.00;94.03
77979;BME280;67169;50.268;8.694;2023-05-10T02:38:34;98948.03;;;12.00;94.36
77979;BME280;67169;50.268;8.694;2023-05-10T02:41:04;98952.84;;;11.95;94.52
77979;BME280;67169;50.268;8.694;2023-05-10T02:43:33;98947.34;;;11.97;94.78
77979;BME280;67169;50.268;8.694;2023-05-10T02:46:00;98957.53;;;11.92;95.08
77979;BME280;67169;50.268;8.694;2023-05-10T02:48:26;98953.97;;;11.91;95.07
77979;BME280;67169;50.268;8.694;2023-05-10T02:50:55;98967.00;;;11.99;95.09
77979;BME280;67169;50.268;8.694;2023-05-10T02:53:23;98961.00;;;11.94;95.22
77979;BME280;67169;50.268;8.694;2023-05-10T02:55:59;98964.47;;;11.96;95.48
77979;BME280;67169;50.268;8.694;2023-05-10T02:58:30;98964.66;;;11.93;95.28
77979;BME280;67169;50.268;8.694;2023-05-10T03:00:57;98962.13;;;11.90;95.06
77979;BME280;67169;50.268;8.694;2023-05-10T03:03:23;98960.56;;;11.85;94.87
77979;BME280;67169;50.268;8.694;2023-05-10T03:05:50;98962.28;;;11.86;94.84
77979;BME280;67169;50.268;8.694;2023-05-10T03:08:19;98964.22;;;11.84;94.75
77979;BME280;67169;50.268;8.694;2023-05-10T03:10:54;98966.34;;;11.78;94.82
77979;BME280;67169;50.268;8.694;2023-05-10T03:13:31;98970.72;;;11.80;94.65
77979;BME280;67169;50.268;8.694;2023-05-10T03:16:06;98971.81;;;11.76;94.84
77979;BME280;67169;50.268;8.694;2023-05-10T03:18:38;98972.59;;;11.78;94.96
77979;BME280;67169;50.268;8.694;2023-05-10T03:21:08;98963.56;;;11.79;94.84
77979;BME280;67169;50.268;8.694;2023-05-10T03:23:41;98967.22;;;11.78;94.72
77979;BME280;67169;50.268;8.694;2023-05-10T03:26:08;98972.44;;;11.81;94.66
77979;BME280;67169;50.268;8.694;2023-05-10T03:28:36;98973.41;;;11.80;94.54
77979;BME280;67169;50.268;8.694;2023-05-10T03:31:04;98967.38;;;11.75;94.73
77979;BME280;67169;50.268;8.694;2023-05-10T03:33:32;98953.66;;;11.64;94.75
77979;BME280;67169;50.268;8.694;2023-05-10T03:35:58;98987.72;;;11.65;95.00
77979;BME280;67169;50.268;8.694;2023-05-10T03:38:25;98991.84;;;11.55;95.24
77979;BME280;67169;50.268;8.694;2023-05-10T03:40:51;98990.91;;;11.56;95.58
77979;BME280;67169;50.268;8.694;2023-05-10T03:43:18;98992.66;;;11.57;95.30
77979;BME280;67169;50.268;8.694;2023-05-10T03:45:46;98990.91;;;11.56;95.38
77979;BME280;67169;50.268;8.694;2023-05-10T03:48:12;98987.16;;;11.58;95.15
77979;BME280;67169;50.268;8.694;2023-05-10T03:50:39;98988.84;;;11.61;95.01
77979;BME280;67169;50.268;8.694;2023-05-10T03:53:06;98991.84;;;11.55;95.16
77979;BME280;67169;50.268;8.694;2023-05-10T03:55:33;98995.41;;;11.55;95.04
77979;BME280;67169;50.268;8.694;2023-05-10T03:58:01;98997.25;;;11.55;95.43
77979;BME280;67169;50.268;8.694;2023-05-10T04:00:27;99001.84;;;11.53;95.07
77979;BME280;67169;50.268;8.694;2023-05-10T04:02:56;99000.97;;;11.52;95.09
77979;BME280;67169;50.268;8.694;2023-05-10T04:05:23;98988.94;;;11.42;95.29
77979;BME280;67169;50.268;8.694;2023-05-10T04:07:49;98998.44;;;11.49;95.35
77979;BME280;67169;50.268;8.694;2023-05-10T04:10:16;98992.03;;;11.52;95.13
77979;BME280;67169;50.268;8.694;2023-05-10T04:12:43;98971.94;;;11.41;95.21
77979;BME280;67169;50.268;8.694;2023-05-10T04:15:10;99004.56;;;11.53;95.00
77979;BME280;67169;50.268;8.694;2023-05-10T04:17:36;98994.66;;;11.53;94.83
77979;BME280;67169;50.268;8.694;2023-05-10T04:20:05;98993.94;;;11.50;94.67
77979;BME280;67169;50.268;8.694;2023-05-10T04:22:32;98998.44;;;11.49;94.80
77979;BME280;67169;50.268;8.694;2023-05-10T04:24:59;98993.94;;;11.50;94.96
77979;BME280;67169;50.268;8.694;2023-05-10T04:27:25;98992.19;;;11.49;95.17
77979;BME280;67169;50.268;8.694;2023-05-10T04:29:52;98989.41;;;11.50;95.23
77979;BME280;67169;50.268;8.694;2023-05-10T04:32:18;99000.81;;;11.55;94.69
77979;BME280;67169;50.268;8.694;2023-05-10T04:34:45;99010.88;;;11.52;94.79
77979;BME280;67169;50.268;8.694;2023-05-10T04:37:13;99003.50;;;11.55;94.88
77979;BME280;67169;50.268;8.694;2023-05-10T04:39:40;99008.81;;;11.57;94.78
77979;BME280;67169;50.268;8.694;2023-05-10T04:42:06;99018.63;;;11.58;94.79
77979;BME280;67169;50.268;8.694;2023-05-10T04:44:33;99019.44;;;11.60;95.18
77979;BME280;67169;50.268;8.694;2023-05-10T04:47:00;99023.69;;;11.64;94.90
77979;BME280;67169;50.268;8.694;2023-05-10T04:49:27;99023.25;;;11.72;94.53
77979;BME280;67169;50.268;8.694;2023-05-10T04:51:54;99028.53;;;11.73;94.43
77979;BME280;67169;50.268;8.694;2023-05-10T04:54:21;99030.75;;;11.82;94.44
77979;BME280;67169;50.268;8.694;2023-05-10T04:56:48;99030.28;;;11.92;94.14
77979;BME280;67169;50.268;8.694;2023-05-10T04:59:15;99034.66;;;11.94;93.97
77979;BME280;67169;50.268;8.694;2023-05-10T05:01:41;99025.50;;;11.97;94.06
77979;BME280;67169;50.268;8.694;2023-05-10T05:04:08;99032.81;;;12.10;93.48
77979;BME280;67169;50.268;8.694;2023-05-10T05:06:35;99030.91;;;12.13;92.69
77979;BME280;67169;50.268;8.694;2023-05-10T05:09:01;99033.16;;;12.20;92.61
77979;BME280;67169;50.268;8.694;2023-05-10T05:11:29;99034.56;;;12.27;91.97
77979;BME280;67169;50.268;8.694;2023-05-10T05:13:56;99028.19;;;12.28;92.42
77979;BME280;67169;50.268;8.694;2023-05-10T05:16:24;99032.03;;;12.24;92.65
77979;BME280;67169;50.268;8.694;2023-05-10T05:18:50;99034.03;;;12.21;93.05
77979;BME280;67169;50.268;8.694;2023-05-10T05:21:18;99021.34;;;12.07;92.73
77979;BME280;67169;50.268;8.694;2023-05-10T05:23:44;99024.72;;;12.10;92.47
77979;BME280;67169;50.268;8.694;2023-05-10T05:26:11;99040.28;;;12.21;92.65
77979;BME280;67169;50.268;8.694;2023-05-10T05:28:39;99045.34;;;12.27;92.53
77979;BME280;67169;50.268;8.694;2023-05-10T05:31:06;99043.44;;;12.29;92.17
77979;BME280;67169;50.268;8.694;2023-05-10T05:33:34;99047.69;;;12.33;92.16
77979;BME280;67169;50.268;8.694;2023-05-10T05:36:01;99045.34;;;12.27;92.02
77979;BME280;67169;50.268;8.694;2023-05-10T05:38:27;99031.28;;;12.22;92.10
77979;BME280;67169;50.268;8.694;2023-05-10T05:40:54;99050.41;;;12.33;92.08
77979;BME280;67169;50.268;8.694;2023-05-10T05:43:20;99038.66;;;12.34;91.92
77979;BME280;67169;50.268;8.694;2023-05-10T05:45:48;99050.41;;;12.33;91.77
77979;BME280;67169;50.268;8.694;2023-05-10T05:48:15;99052.13;;;12.34;92.66
77979;BME280;67169;50.268;8.694;2023-05-10T05:50:42;99052.06;;;12.36;92.72
77979;BME280;67169;50.268;8.694;2023-05-10T05:53:08;99044.03;;;12.34;92.56
77979;BME280;67169;50.268;8.694;2023-05-10T05:55:35;99050.22;;;12.37;92.59
77979;BME280;67169;50.268;8.694;2023-05-10T05:58:01;99052.66;;;12.41;92.45
77979;BME280;67169;50.268;8.694;2023-05-10T06:00:28;99051.78;;;12.41;92.57
77979;BME280;67169;50.268;8.694;2023-05-10T06:02:56;99056.47;;;12.37;92.75
77979;BME280;67169;50.268;8.694;2023-05-10T06:05:23;99066.06;;;12.43;92.18
77979;BME280;67169;50.268;8.694;2023-05-10T06:07:49;99062.91;;;12.34;92.31
77979;BME280;67169;50.268;8.694;2023-05-10T06:10:16;99067.38;;;12.35;92.64
77979;BME280;67169;50.268;8.694;2023-05-10T06:12:43;99076.31;;;12.20;92.86
77979;BME280;67169;50.268;8.694;2023-05-10T06:15:10;99069.06;;;12.21;93.29
77979;BME280;67169;50.268;8.694;2023-05-10T06:17:36;99069.88;;;12.23;93.54
77979;BME280;67169;50.268;8.694;2023-05-10T06:20:06;99073.88;;;12.31;92.55
77979;BME280;67169;50.268;8.694;2023-05-10T06:22:33;99073.16;;;12.28;93.00
77979;BME280;67169;50.268;8.694;2023-05-10T06:24:59;99084.81;;;12.28;92.64
77979;BME280;67169;50.268;8.694;2023-05-10T06:27:27;99093.19;;;12.24;92.86
77979;BME280;67169;50.268;8.694;2023-05-10T06:29:53;99089.03;;;12.18;93.47
77979;BME280;67169;50.268;8.694;2023-05-10T06:32:20;99093.81;;;12.29;93.21
77979;BME280;67169;50.268;8.694;2023-05-10T06:34:47;99090.22;;;12.28;93.21
77979;BME280;67169;50.268;8.694;2023-05-10T06:37:15;99082.59;;;12.37;93.23
77979;BME280;67169;50.268;8.694;2023-05-10T06:39:41;99085.53;;;12.48;92.30
77979;BME280;67169;50.268;8.694;2023-05-10T06:42:08;99090.59;;;12.54;91.86
77979;BME280;67169;50.268;8.694;2023-05-10T06:44:35;99090.38;;;12.73;91.54
77979;BME280;67169;50.268;8.694;2023-05-10T06:47:01;99094.69;;;12.77;91.28
77979;BME280;67169;50.268;8.694;2023-05-10T06:49:28;99094.69;;;12.77;91.66
77979;BME280;67169;50.268;8.694;2023-05-10T06:51:55;99095.44;;;12.79;91.09
77979;BME280;67169;50.268;8.694;2023-05-10T06:54:23;99105.53;;;12.75;91.24
77979;BME280;67169;50.268;8.694;2023-05-10T06:56:49;99103.13;;;12.71;91.70
77979;BME280;67169;50.268;8.694;2023-05-10T06:59:16;99097.38;;;12.77;92.17
77979;BME280;67169;50.268;8.694;2023-05-10T07:01:44;99106.50;;;12.74;91.51
77979;BME280;67169;50.268;8.694;2023-05-10T07:04:10;99102.56;;;12.80;91.33
77979;BME280;67169;50.268;8.694;2023-05-10T07:06:38;99104.75;;;12.89;90.97
77979;BME280;67169;50.268;8.694;2023-05-10T07:09:04;99109.28;;;12.89;90.42
77979;BME280;67169;50.268;8.694;2023-05-10T07:11:32;99111.97;;;12.89;90.60
77979;BME280;67169;50.268;8.694;2023-05-10T07:13:59;99107.09;;;12.79;89.52
77979;BME280;67169;50.268;8.694;2023-05-10T07:16:25;99112.66;;;12.92;89.93
77979;BME280;67169;50.268;8.694;2023-05-10T07:18:52;99118.13;;;13.06;89.77
77979;BME280;67169;50.268;8.694;2023-05-10T07:21:18;99113.41;;;13.26;89.68
77979;BME280;67169;50.268;8.694;2023-05-10T07:23:45;99121.09;;;13.48;89.79
77979;BME280;67169;50.268;8.694;2023-05-10T07:26:12;99123.72;;;13.49;88.05
77979;BME280;67169;50.268;8.694;2023-05-10T07:28:41;99124.25;;;13.40;88.48
77979;BME280;67169;50.268;8.694;2023-05-10T07:31:08;99128.00;;;13.38;89.09
77979;BME280;67169;50.268;8.694;2023-05-10T07:33:34;99129.09;;;13.35;88.98
77979;BME280;67169;50.268;8.694;2023-05-10T07:36:01;99127.59;;;13.29;89.37
77979;BME280;67169;50.268;8.694;2023-05-10T07:38:27;99135.41;;;13.34;89.67
77979;BME280;67169;50.268;8.694;2023-05-10T07:40:54;99129.44;;;13.13;88.78
77979;BME280;67169;50.268;8.694;2023-05-10T07:43:20;99132.66;;;13.20;89.35
77979;BME280;67169;50.268;8.694;2023-05-10T07:45:48;99139.78;;;13.21;89.81
77979;BME280;67169;50.268;8.694;2023-05-10T07:48:15;99133.50;;;13.20;89.61
77979;BME280;67169;50.268;8.694;2023-05-10T07:50:41;99139.69;;;13.22;89.11
77979;BME280;67169;50.268;8.694;2023-05-10T07:53:08;99140.13;;;13.30;88.93
77979;BME280;67169;50.268;8.694;2023-05-10T07:55:35;99144.03;;;13.41;88.66
77979;BME280;67169;50.268;8.694;2023-05-10T07:58:01;99143.75;;;13.45;88.74
77979;BME280;67169;50.268;8.694;2023-05-10T08:00:28;99136.34;;;13.49;88.61
77979;BME280;67169;50.268;8.694;2023-05-10T08:02:56;99146.94;;;13.52;88.20
77979;BME280;67169;50.268;8.694;2023-05-10T08:05:22;99148.59;;;13.54;88.56
77979;BME280;67169;50.268;8.694;2023-05-10T08:07:49;99151.25;;;13.56;87.36
77979;BME280;67169;50.268;8.694;2023-05-10T08:10:15;99148.06;;;13.64;87.76
77979;BME280;67169;50.268;8.694;2023-05-10T08:12:42;99154.50;;;13.61;87.99
77979;BME280;67169;50.268;8.694;2023-05-10T08:15:09;99153.19;;;13.68;88.42
77979;BME280;67169;50.268;8.694;2023-05-10T08:17:36;99143.16;;;13.70;87.62
77979;BME280;67169;50.268;8.694;2023-05-10T08:20:05;99149.13;;;13.61;88.23
77979;BME280;67169;50.268;8.694;2023-05-10T08:22:33;99154.16;;;13.67;87.93
77979;BME280;67169;50.268;8.694;2023-05-10T08:24:59;99149.28;;;13.58;86.44
77979;BME280;67169;50.268;8.694;2023-05-10T08:27:26;99156.16;;;13.64;86.44
77979;BME280;67169;50.268;8.694;2023-05-10T08:29:52;99155.63;;;13.73;86.52
77979;BME280;67169;50.268;8.694;2023-05-10T08:32:19;99161.78;;;13.75;86.54
77979;BME280;67169;50.268;8.694;2023-05-10T08:34:45;99155.91;;;13.83;86.57
77979;BME280;67169;50.268;8.694;2023-05-10T08:37:13;99160.38;;;13.98;86.94
77979;BME280;67169;50.268;8.694;2023-05-10T08:39:40;99161.25;;;14.13;84.84
77979;BME280;67169;50.268;8.694;2023-05-10T08:42:07;99165.03;;;14.24;84.60
77979;BME280;67169;50.268;8.694;2023-05-10T08:44:35;99167.06;;;14.35;83.36
77979;BME280;67169;50.268;8.694;2023-05-10T08:47:05;99168.53;;;14.55;84.21
77979;BME280;67169;50.268;8.694;2023-05-10T08:49:32;99168.72;;;14.66;83.36
77979;BME280;67169;50.268;8.694;2023-05-10T08:52:02;99168.22;;;14.74;83.10
77979;BME280;67169;50.268;8.694;2023-05-10T08:54:32;99161.56;;;14.80;82.91
77979;BME280;67169;50.268;8.694;2023-05-10T08:56:59;99166.56;;;14.71;81.97
77979;BME280;67169;50.268;8.694;2023-05-10T08:59:27;99178.69;;;14.66;82.67
77979;BME280;67169;50.268;8.694;2023-05-10T09:01:55;99172.97;;;14.42;83.80
77979;BME280;67169;50.268;8.694;2023-05-10T09:04:24;99160.59;;;14.09;85.85
77979;BME280;67169;50.268;8.694;2023-05-10T09:06:50;99174.78;;;13.98;86.70
77979;BME280;67169;50.268;8.694;2023-05-10T09:09:17;99179.50;;;13.95;86.26
77979;BME280;67169;50.268;8.694;2023-05-10T09:11:45;99183.72;;;13.85;87.47
77979;BME280;67169;50.268;8.694;2023-05-10T09:14:12;99178.22;;;13.86;89.45
77979;BME280;67169;50.268;8.694;2023-05-10T09:16:40;99195.72;;;13.65;88.33
77979;BME280;67169;50.268;8.694;2023-05-10T09:19:07;99184.72;;;13.38;87.61
77979;BME280;67169;50.268;8.694;2023-05-10T09:21:35;99198.69;;;13.30;89.29
77979;BME280;67169;50.268;8.694;2023-05-10T09:24:03;99198.41;;;13.35;90.78
77979;BME280;67169;50.268;8.694;2023-05-10T09:26:30;99198.50;;;13.49;90.03
77979;BME280;67169;50.268;8.694;2023-05-10T09:28:59;99194.25;;;13.59;89.61
77979;BME280;67169;50.268;8.694;2023-05-10T09:31:43;99180.81;;;13.73;89.28
77979;BME280;67169;50.268;8.694;2023-05-10T09:34:09;99195.25;;;14.02;86.94
77979;BME280;67169;50.268;8.694;2023-05-10T09:36:36;99198.25;;;14.27;86.71
77979;BME280;67169;50.268;8.694;2023-05-10T09:39:02;99191.41;;;14.49;84.43
77979;BME280;67169;50.268;8.694;2023-05-10T09:41:29;99187.47;;;14.69;82.04
77979;BME280;67169;50.268;8.694;2023-05-10T09:43:56;99194.97;;;14.93;81.17
77979;BME280;67169;50.268;8.694;2023-05-10T09:46:23;99188.75;;;15.05;82.88
77979;BME280;67169;50.268;8.694;2023-05-10T09:48:51;99193.41;;;15.30;83.01
77979;BME280;67169;50.268;8.694;2023-05-10T09:51:21;99184.56;;;15.41;80.08
77979;BME280;67169;50.268;8.694;2023-05-10T09:53:48;99177.47;;;15.65;79.53
77979;BME280;67169;50.268;8.694;2023-05-10T09:56:33;99187.28;;;15.68;80.78
77979;BME280;67169;50.268;8.694;2023-05-10T09:59:04;99192.41;;;15.85;79.89
77979;BME280;67169;50.268;8.694;2023-05-10T10:01:32;99194.94;;;16.01;79.31
77979;BME280;67169;50.268;8.694;2023-05-10T10:04:02;99194.06;;;16.01;74.32
77979;BME280;67169;50.268;8.694;2023-05-10T10:06:29;99188.44;;;16.42;72.02
77979;BME280;67169;50.268;8.694;2023-05-10T10:08:56;99196.56;;;16.17;75.55
77979;BME280;67169;50.268;8.694;2023-05-10T10:11:23;99201.22;;;16.27;73.96
77979;BME280;67169;50.268;8.694;2023-05-10T10:13:50;99190.16;;;16.43;75.54
77979;BME280;67169;50.268;8.694;2023-05-10T10:16:17;99192.09;;;16.41;74.61
77979;BME280;67169;50.268;8.694;2023-05-10T10:18:45;99187.66;;;16.40;71.84
77979;BME280;67169;50.268;8.694;2023-05-10T10:21:13;99201.56;;;16.23;70.84
77979;BME280;67169;50.268;8.694;2023-05-10T10:23:40;99182.34;;;16.13;72.65
77979;BME280;67169;50.268;8.694;2023-05-10T10:26:06;99199.50;;;16.39;69.79
77979;BME280;67169;50.268;8.694;2023-05-10T10:28:39;99199.72;;;16.36;67.94
77979;BME280;67169;50.268;8.694;2023-05-10T10:31:18;99192.31;;;16.64;68.95
77979;BME280;67169;50.268;8.694;2023-05-10T10:34:00;99194.09;;;17.14;69.28
77979;BME280;67169;50.268;8.694;2023-05-10T10:36:28;99185.72;;;17.65;68.21
77979;BME280;67169;50.268;8.694;2023-05-10T10:38:57;99183.56;;;17.82;64.83
77979;BME280;67169;50.268;8.694;2023-05-10T10:41:31;99185.28;;;18.18;61.53
77979;BME280;67169;50.268;8.694;2023-05-10T10:44:23;99196.66;;;18.23;63.72
77979;BME280;67169;50.268;8.694;2023-05-10T10:47:01;99191.50;;;18.42;60.02
77979;BME280;67169;50.268;8.694;2023-05-10T10:49:33;99190.34;;;17.76;63.31
77979;BME280;67169;50.268;8.694;2023-05-10T10:52:21;99181.78;;;17.45;66.09
77979;BME280;67169;50.268;8.694;2023-05-10T10:54:51;99187.63;;;17.76;65.53
77979;BME280;67169;50.268;8.694;2023-05-10T10:57:19;99187.03;;;17.60;64.02
77979;BME280;67169;50.268;8.694;2023-05-10T10:59:47;99201.00;;;16.69;69.75
77979;BME280;67169;50.268;8.694;2023-05-10T11:02:33;99206.47;;;16.18;72.65
77979;BME280;67169;50.268;8.694;2023-05-10T11:05:33;99215.94;;;15.31;76.45
77979;BME280;67169;50.268;8.694;2023-05-10T11:08:08;99202.56;;;15.15;78.27
77979;BME280;67169;50.268;8.694;2023-05-10T11:10:35;99159.94;;;14.90;79.64
77979;BME280;67169;50.268;8.694;2023-05-10T11:13:03;99216.56;;;14.80;81.63
77979;BME280;67169;50.268;8.694;2023-05-10T11:15:31;99215.66;;;14.37;81.65
77979;BME280;67169;50.268;8.694;2023-05-10T11:17:58;99205.31;;;14.00;82.88
77979;BME280;67169;50.268;8.694;2023-05-10T11:20:28;99209.56;;;13.74;84.47
77979;BME280;67169;50.268;8.694;2023-05-10T11:23:11;99218.00;;;13.54;85.19
77979;BME280;67169;50.268;8.694;2023-05-10T11:25:42;99210.72;;;13.24;87.51
77979;BME280;67169;50.268;8.694;2023-05-10T11:28:09;99229.66;;;12.75;87.01
77979;BME280;67169;50.268;8.694;2023-05-10T11:30:36;99223.50;;;12.40;90.16
77979;BME280;67169;50.268;8.694;2023-05-10T11:33:03;99235.16;;;12.41;91.17
77979;BME280;67169;50.268;8.694;2023-05-10T11:35:36;99238.56;;;12.44;91.64
77979;BME280;67169;50.268;8.694;2023-05-10T11:38:05;99235.63;;;12.49;90.75
77979;BME280;67169;50.268;8.694;2023-05-10T11:40:32;99231.81;;;12.53;91.23
77979;BME280;67169;50.268;8.694;2023-05-10T11:42:58;99245.31;;;12.69;90.36
77979;BME280;67169;50.268;8.694;2023-05-10T11:45:25;99247.59;;;12.76;91.42
77979;BME280;67169;50.268;8.694;2023-05-10T11:47:53;99227.75;;;12.77;90.21
77979;BME280;67169;50.268;8.694;2023-05-10T11:50:20;99258.59;;;13.05;90.38
77979;BME280;67169;50.268;8.694;2023-05-10T11:52:51;99256.16;;;13.16;90.56
77979;BME280;67169;50.268;8.694;2023-05-10T11:55:18;99262.09;;;13.23;88.50
77979;BME280;67169;50.268;8.694;2023-05-10T11:57:45;99253.41;;;13.34;90.08
77979;BME280;67169;50.268;8.694;2023-05-10T12:00:12;99255.81;;;13.54;89.19
77979;BME280;67169;50.268;8.694;2023-05-10T12:02:39;99256.59;;;13.56;87.69
77979;BME280;67169;50.268;8.694;2023-05-10T12:05:07;99250.59;;;13.51;86.70
77979;BME280;67169;50.268;8.694;2023-05-10T12:07:33;99260.59;;;13.65;89.25
77979;BME280;67169;50.268;8.694;2023-05-10T12:10:07;99258.41;;;13.71;89.45
77979;BME280;67169;50.268;8.694;2023-05-10T12:12:38;99258.81;;;13.80;88.69
77979;BME280;67169;50.268;8.694;2023-05-10T12:15:10;99257.28;;;13.90;88.61
77979;BME280;67169;50.268;8.694;2023-05-10T12:17:38;99257.44;;;14.02;88.24
77979;BME280;67169;50.268;8.694;2023-05-10T12:20:14;99256.56;;;14.02;85.37
77979;BME280;67169;50.268;8.694;2023-05-10T12:22:44;99246.28;;;13.93;86.12
77979;BME280;67169;50.268;8.694;2023-05-10T12:25:12;99257.97;;;13.93;83.87
77979;BME280;67169;50.268;8.694;2023-05-10T12:27:39;99261.56;;;13.94;84.18
77979;BME280;67169;50.268;8.694;2023-05-10T12:30:06;99257.44;;;14.02;85.49
77979;BME280;67169;50.268;8.694;2023-05-10T12:32:40;99261.63;;;14.08;85.32
77979;BME280;67169;50.268;8.694;2023-05-10T12:35:07;99271.16;;;14.14;82.85
77979;BME280;67169;50.268;8.694;2023-05-10T12:37:34;99264.53;;;14.19;82.89
77979;BME280;67169;50.268;8.694;2023-05-10T12:40:06;99273.09;;;14.42;83.52
77979;BME280;67169;50.268;8.694;2023-05-10T12:42:35;99275.81;;;14.56;82.23
77979;BME280;67169;50.268;8.694;2023-05-10T12:45:03;99273.31;;;14.82;84.91
77979;BME280;67169;50.268;8.694;2023-05-10T12:47:30;99258.22;;;14.92;81.83
77979;BME280;67169;50.268;8.694;2023-05-10T12:49:57;99275.22;;;15.08;80.28
77979;BME280;67169;50.268;8.694;2023-05-10T12:52:24;99272.31;;;15.11;81.85
77979;BME280;67169;50.268;8.694;2023-05-10T12:54:51;99267.84;;;15.25;79.62
77979;BME280;67169;50.268;8.694;2023-05-10T12:57:18;99270.06;;;15.32;77.80
77979;BME280;67169;50.268;8.694;2023-05-10T12:59:46;99275.00;;;15.26;79.02
77979;BME280;67169;50.268;8.694;2023-05-10T13:02:12;99277.63;;;15.13;77.43
77979;BME280;67169;50.268;8.694;2023-05-10T13:04:40;99269.34;;;15.02;78.97
77979;BME280;67169;50.268;8.694;2023-05-10T13:07:07;99277.34;;;15.03;77.27